Carroll, OH

7:46 AM EST on January 18, 2017 (GMT -0500)
Fairfield County Weather | | Change Station

Elev 958 ft 39.75 °N, 82.57 °W | Updated 3 seconds ago

Overcast
Overcast
37.6 °F
Feels Like 35 °F
N
3.5
Wind Variable Wind from WNW
Gusts 0.0 mph

Today
High -- | Low -- °F
--% Chance of Precip.
Yesterday
High -- | Low -- °F
Precip. -- in
Pressure 30.10 in
Visibility 10.0 miles
Clouds Scattered Clouds 2500 ft
Mostly Cloudy 3200 ft
Overcast 4200 ft
Windchill 35 °F
Dew Point 34 °F
Humidity 87%
Rainfall 0.05 in
Snow Depth Not available.
7:48 AM 5:34 PM
Waning Gibbous, 63% visible
METAR KLHQ 181153Z AUTO 30008KT 10SM SCT025 BKN032 OVC042 04/02 A3009 RMK AO2 RAB1054E12 SLP192 P0000 60002 70002 T00440017 10083 20044 53016
Pressure 30.10 in
Visibility 10.0 miles
Clouds Scattered Clouds 2500 ft
Mostly Cloudy 3200 ft
Overcast 4200 ft
Windchill 35 °F
Dew Point 34 °F
Humidity 87%
Rainfall 0.05 in
Snow Depth Not available.
7:48 AM 5:34 PM
Waning Gibbous, 63% visible
METAR KLHQ 181153Z AUTO 30008KT 10SM SCT025 BKN032 OVC042 04/02 A3009 RMK AO2 RAB1054E12 SLP192 P0000 60002 70002 T00440017 10083 20044 53016

Get Your Daily Forecast Email!

Thanks for signing up!

Be on the lookout for a verification email in your inbox.

You'll start receiving the daily forecast at 8 AM.

×

10-Day Weather Forecast

Almanac

Astronomy

Jan. 18, 2017 Rise Set
Actual Time
Civil Twilight
Nautical Twilight
Astronomical Twilight
Moon
Length of Visible Light
Length of Day
Tomorrow will be .
, % of the Moon is Illuminated

Today's Extremes

State Highs State Lows

Community

WunderPhotos

Upload Photos

1,962,540 photos uploaded!

WunderBlog® & News

Nearby

Air Quality

  Air Quality AQ Index Pollutant
Not available.

Snow Depth

Station Depth Elevation

Earthquake Activity

City Distance Mag. Time & Date
Minimum magnitude displayed is 2.5.

Coastal Water Temperatures

Place Temperature

Stations

Nearby Weather Stations

Station Location Temp. Windchill Dew Point Humidity Wind Precip. Elev Updated Type
                   

Watches & Warnings

There are currently no watches in effect.